METAR-berichten van nabijgelegen luchthavens

 

EHBK - Maastricht-Aachen Airport
Afstand tot station: WZW 9km
Bijgewerkt: 21-08-2018 19:55
Helder
Helder
 Wind vanuit NO
Wind: NO 7 km/h
Temperatuur: 23°C
Dauwpunt: 16°C
Vochtigheid: 65%
Luchtdruk: 1018 hPa
Bewolking: Helder
Zicht: 10 km
2018/08/21 17:55 EHBK 211755Z AUTO 04004KT 9999 NCD 23/16 Q1018 NOSIG
ETNG - NATO Air Base Geilenkirchen
Afstand tot station: ONO 11km
Bijgewerkt: 21-08-2018 19:50
Gedeeltelijk bewolkt
Gedeeltelijk bewolkt
 Wind vanuit NNO
Wind: NNO 6 km/h
Temperatuur: 26°C
Dauwpunt: 15°C
Vochtigheid: 51%
Luchtdruk: 1018 hPa
Bewolking: Gedeeltelijk bewolkt
Zicht: 10 km
Details bewolking: Licht bewolkt 1372 m
Gedeeltelijk bewolkt 2438 m
2018/08/21 17:50 ETNG 211750Z 02003KT 9999 FEW045 SCT080 26/15 Q1018 NOSIG